Time;durP1;ratioP1;P1;durP2;ratioP2;P2;SDS_P1;SDS_P2;PMS_P1;PMS_P2;Temp;Humidity;BMP_temperature;BMP_pressure;BME280_temperature;BME280_humidity;BME280_pressure;Samples;Min_cycle;Max_cycle;Signal;HPM_P1;HPM_P2
2023/10/07 00:00:59;;;;;;;13.63;4.80;;;16.20;99.90;;;;;;4966065;28;20522;-85
2023/10/07 00:03:25;;;;;;;15.70;5.30;;;16.20;99.90;;;;;;4963652;28;20131;-88
2023/10/07 00:06:00;;;;;;;15.82;5.63;;;16.20;99.90;;;;;;4959633;28;20093;-88
2023/10/07 00:08:27;;;;;;;18.30;5.25;;;16.10;99.90;;;;;;4965734;28;20053;-87
2023/10/07 00:10:58;;;;;;;17.35;5.70;;;16.10;99.90;;;;;;4962619;28;20114;-87
2023/10/07 00:13:26;;;;;;;16.88;5.55;;;16.10;99.90;;;;;;4965074;28;20522;-87
2023/10/07 00:15:53;;;;;;;10.98;4.85;;;16.10;99.90;;;;;;4966571;28;20057;-87
2023/10/07 00:18:19;;;;;;;16.00;6.32;;;16.10;99.90;;;;;;4964877;28;20050;-84
2023/10/07 00:20:56;;;;;;;25.15;6.18;;;16.10;99.90;;;;;;4962965;28;20089;-88
2023/10/07 00:23:26;;;;;;;22.08;6.47;;;16.10;99.90;;;;;;4970334;28;20052;-84
2023/10/07 00:25:57;;;;;;;26.98;6.70;;;16.10;99.90;;;;;;4967401;28;20341;-86
2023/10/07 00:30:56;;;;;;;10.75;5.50;;;16.10;99.90;;;;;;4965690;28;20132;-87
2023/10/07 00:33:22;;;;;;;14.75;4.88;;;16.10;99.90;;;;;;4970104;28;20483;-88
2023/10/07 00:35:54;;;;;;;24.58;7.28;;;16.10;99.90;;;;;;4967166;28;20042;-88
2023/10/07 00:38:24;;;;;;;12.30;5.22;;;16.10;99.90;;;;;;4969142;28;20070;-89
2023/10/07 00:40:54;;;;;;;20.67;6.10;;;16.00;99.90;;;;;;4965411;28;20043;-86
2023/10/07 00:43:30;;;;;;;17.30;6.80;;;16.10;99.90;;;;;;4970162;28;20452;-88
2023/10/07 00:46:21;;;;;;;16.65;6.50;;;16.00;99.90;;;;;;4960401;28;20030;-88
2023/10/07 00:48:57;;;;;;;16.55;6.35;;;16.00;99.90;;;;;;4970360;28;20435;-93
2023/10/07 00:51:33;;;;;;;19.13;6.63;;;16.00;99.90;;;;;;4963017;28;20052;-81
2023/10/07 00:57:24;;;;;;;18.92;6.45;;;16.00;99.90;;;;;;4941593;28;20046;-88
2023/10/07 00:59:43;;;;;;;25.10;6.15;;;16.00;99.90;;;;;;4969901;28;20055;-84
2023/10/07 01:02:16;;;;;;;20.73;6.20;;;16.00;99.90;;;;;;4966134;28;20019;-88
2023/10/07 01:04:43;;;;;;;13.48;5.43;;;15.90;99.90;;;;;;4967670;28;20031;-85
2023/10/07 01:07:18;;;;;;;24.50;6.18;;;15.90;99.90;;;;;;4967206;28;20037;-88
2023/10/07 01:10:31;;;;;;;18.63;5.32;;;15.90;99.90;;;;;;4968057;28;20125;-87
2023/10/07 01:12:51;;;;;;;15.15;5.82;;;15.90;99.90;;;;;;4962533;28;20038;-87
2023/10/07 01:15:23;;;;;;;15.52;5.35;;;15.90;99.90;;;;;;4969513;28;20027;-88
2023/10/07 01:18:13;;;;;;;12.68;5.15;;;15.90;99.90;;;;;;4965169;28;20030;-85
2023/10/07 01:21:00;;;;;;;14.27;5.00;;;15.90;99.90;;;;;;4965668;28;20395;-83
2023/10/07 01:23:33;;;;;;;16.90;6.22;;;15.90;99.90;;;;;;4966572;28;20039;-87
2023/10/07 01:26:14;;;;;;;17.07;5.50;;;15.90;99.90;;;;;;4971545;28;20043;-85
2023/10/07 01:28:40;;;;;;;19.45;5.78;;;15.90;99.90;;;;;;4965375;28;20467;-84
2023/10/07 01:31:18;;;;;;;19.30;5.45;;;15.90;99.90;;;;;;4967852;28;20027;-85
2023/10/07 01:33:47;;;;;;;14.95;5.03;;;15.90;99.90;;;;;;4966714;28;20062;-86
2023/10/07 01:36:24;;;;;;;10.25;3.92;;;15.90;99.90;;;;;;4967516;28;20046;-86
2023/10/07 01:38:52;;;;;;;17.50;4.75;;;15.90;99.90;;;;;;4966161;28;20035;-85
2023/10/07 01:41:27;;;;;;;15.70;5.35;;;15.90;99.90;;;;;;4967335;28;20026;-85
2023/10/07 01:43:59;;;;;;;17.52;5.20;;;15.90;99.90;;;;;;4966997;28;20035;-85
2023/10/07 01:46:27;;;;;;;18.60;5.45;;;15.90;99.90;;;;;;4965219;28;20030;-84
2023/10/07 01:48:57;;;;;;;15.27;5.15;;;15.90;99.90;;;;;;4963332;28;20042;-86
2023/10/07 01:51:29;;;;;;;16.38;5.60;;;15.90;99.90;;;;;;4950073;28;20153;-86
2023/10/07 01:53:56;;;;;;;16.58;5.05;;;15.90;99.90;;;;;;4961137;28;20061;-86
2023/10/07 01:56:26;;;;;;;14.10;4.47;;;15.90;99.90;;;;;;4963848;28;20281;-91
2023/10/07 01:58:54;;;;;;;16.45;4.55;;;15.90;99.90;;;;;;4962357;28;20058;-86
2023/10/07 02:01:21;;;;;;;17.55;5.70;;;15.90;99.90;;;;;;4963614;28;20038;-89
2023/10/07 02:03:49;;;;;;;11.68;5.13;;;15.80;99.90;;;;;;4965306;28;20031;-86
2023/10/07 02:06:18;;;;;;;19.38;5.78;;;15.90;99.90;;;;;;4960194;28;20031;-84
2023/10/07 02:08:47;;;;;;;20.27;5.30;;;15.80;99.90;;;;;;4958656;28;20085;-88
2023/10/07 02:11:17;;;;;;;20.33;6.00;;;15.80;99.90;;;;;;4963581;28;20437;-83
2023/10/07 02:13:45;;;;;;;17.70;5.30;;;15.80;99.90;;;;;;4965883;28;20413;-82
2023/10/07 02:16:11;;;;;;;16.33;4.75;;;15.70;99.90;;;;;;4964747;28;20046;-87
2023/10/07 02:18:37;;;;;;;18.75;5.85;;;15.70;99.90;;;;;;4962051;28;20447;-84
2023/10/07 02:21:07;;;;;;;16.73;4.78;;;15.60;99.90;;;;;;4960030;28;20043;-86
2023/10/07 02:23:43;;;;;;;18.27;5.18;;;15.60;99.90;;;;;;4967001;28;20041;-85
2023/10/07 02:26:32;;;;;;;12.55;4.05;;;15.60;99.90;;;;;;4963077;28;20038;-85
2023/10/07 02:29:06;;;;;;;12.57;4.68;;;15.60;99.90;;;;;;4961483;28;20043;-81
2023/10/07 02:31:41;;;;;;;18.65;5.32;;;15.60;99.90;;;;;;4963197;28;20070;-82
2023/10/07 02:34:28;;;;;;;13.35;4.40;;;15.60;99.90;;;;;;4962276;28;20031;-85
2023/10/07 02:37:10;;;;;;;12.02;4.25;;;15.60;99.90;;;;;;4958798;28;20452;-85
2023/10/07 02:39:49;;;;;;;14.07;3.75;;;15.60;99.90;;;;;;4965087;28;20043;-86
2023/10/07 02:42:28;;;;;;;16.48;4.80;;;15.60;99.90;;;;;;4960647;28;20030;-86
2023/10/07 02:45:28;;;;;;;10.13;3.78;;;15.60;99.90;;;;;;4961839;28;20491;-82
2023/10/07 02:47:54;;;;;;;10.20;4.20;;;15.60;99.90;;;;;;4961457;28;20117;-84
2023/10/07 02:50:40;;;;;;;10.65;3.80;;;15.60;99.90;;;;;;4960897;28;20031;-88
2023/10/07 02:53:12;;;;;;;7.80;3.38;;;15.60;99.90;;;;;;4962876;28;20039;-83
2023/10/07 02:55:48;;;;;;;11.98;4.43;;;15.50;99.90;;;;;;4949672;28;20105;-83
2023/10/07 02:59:25;;;;;;;12.27;4.75;;;15.50;99.90;;;;;;4962473;28;20043;-82
2023/10/07 03:01:17;;;;;;;10.70;4.18;;;15.50;99.90;;;;;;4956542;28;20042;-82
2023/10/07 03:03:48;;;;;;;16.70;4.43;;;15.50;99.90;;;;;;4960636;28;20054;-83
2023/10/07 03:06:17;;;;;;;10.25;4.05;;;15.50;99.90;;;;;;4959147;28;20031;-85
2023/10/07 03:08:49;;;;;;;23.92;4.28;;;15.50;99.90;;;;;;4960412;28;20031;-87
2023/10/07 03:11:21;;;;;;;12.27;4.90;;;15.50;99.90;;;;;;4961971;28;20081;-86
2023/10/07 03:13:49;;;;;;;10.27;3.58;;;15.50;99.90;;;;;;4962252;28;20038;-84
2023/10/07 03:18:56;;;;;;;15.40;4.68;;;15.60;99.90;;;;;;4962349;28;20035;-85
2023/10/07 03:21:35;;;;;;;9.23;3.95;;;15.60;99.90;;;;;;4959163;28;20073;-82
2023/10/07 03:24:10;;;;;;;14.75;3.95;;;15.60;99.90;;;;;;4961468;28;20395;-85
2023/10/07 03:26:40;;;;;;;12.48;4.60;;;15.60;99.90;;;;;;4961747;28;20263;-83
2023/10/07 03:29:07;;;;;;;13.82;4.30;;;15.60;99.90;;;;;;4962270;28;20038;-83
2023/10/07 03:31:35;;;;;;;14.43;4.75;;;15.60;99.90;;;;;;4960700;28;20077;-83
2023/10/07 03:34:08;;;;;;;12.65;4.25;;;15.60;99.90;;;;;;4959926;28;20484;-81
2023/10/07 03:36:41;;;;;;;18.02;5.30;;;15.60;99.90;;;;;;4958839;28;20117;-83
2023/10/07 03:41:55;;;;;;;16.85;4.43;;;15.60;99.90;;;;;;4963197;28;20030;-82
2023/10/07 03:44:25;;;;;;;12.60;5.22;;;15.50;99.90;;;;;;4954049;28;20122;-85
2023/10/07 03:46:55;;;;;;;13.45;4.38;;;15.50;99.90;;;;;;4974422;28;20042;-85
2023/10/07 03:49:33;;;;;;;16.13;4.10;;;15.60;99.90;;;;;;4964189;28;20027;-81
2023/10/07 03:52:07;;;;;;;12.00;4.53;;;15.50;99.90;;;;;;4955507;28;20034;-84
2023/10/07 03:54:35;;;;;;;12.93;4.45;;;15.50;99.90;;;;;;4961171;28;20106;-84
2023/10/07 03:57:01;;;;;;;15.15;4.32;;;15.50;99.90;;;;;;4960617;28;20022;-82
2023/10/07 03:59:34;;;;;;;18.35;4.13;;;15.40;99.90;;;;;;4963476;28;20121;-83
2023/10/07 04:02:00;;;;;;;14.30;4.50;;;15.50;99.90;;;;;;4961115;28;20488;-84
2023/10/07 04:04:28;;;;;;;11.13;3.58;;;15.50;99.90;;;;;;4962094;28;20050;-82
2023/10/07 04:06:54;;;;;;;14.13;4.15;;;15.50;99.90;;;;;;4961606;28;20035;-83
2023/10/07 04:09:27;;;;;;;16.52;3.80;;;15.50;99.90;;;;;;4961750;28;20047;-85
2023/10/07 04:11:52;;;;;;;7.40;3.60;;;15.50;99.90;;;;;;4962633;28;20040;-84
2023/10/07 04:14:27;;;;;;;17.65;4.32;;;15.50;99.90;;;;;;4961816;28;20460;-85
2023/10/07 04:17:00;;;;;;;7.63;3.55;;;15.50;99.90;;;;;;4959237;28;20026;-84
2023/10/07 04:21:51;;;;;;;9.55;4.15;;;15.50;99.90;;;;;;4958689;28;20058;-84
2023/10/07 04:24:28;;;;;;;12.25;4.22;;;15.50;99.90;;;;;;4961131;28;20516;-83
2023/10/07 04:26:54;;;;;;;12.30;3.90;;;15.50;99.90;;;;;;4961740;28;20399;-81
2023/10/07 04:29:24;;;;;;;9.30;3.88;;;15.60;99.90;;;;;;4962367;28;20023;-84
2023/10/07 04:31:53;;;;;;;8.15;3.63;;;15.60;99.90;;;;;;4960108;28;20106;-84
2023/10/07 04:34:20;;;;;;;9.68;3.35;;;15.60;99.90;;;;;;4959584;28;20089;-83
2023/10/07 04:39:36;;;;;;;9.85;4.15;;;15.60;99.90;;;;;;4960901;28;20035;-85
2023/10/07 04:42:06;;;;;;;9.95;3.80;;;15.60;99.90;;;;;;4961054;28;20113;-87
2023/10/07 04:52:30;;;;;;;16.40;4.28;;;15.60;99.90;;;;;;4959104;28;20035;-87
2023/10/07 04:55:01;;;;;;;13.27;4.40;;;15.60;99.90;;;;;;4957421;28;20599;-85
2023/10/07 05:00:31;;;;;;;12.80;3.88;;;15.60;99.90;;;;;;4958731;28;20065;-86
2023/10/07 05:03:00;;;;;;;11.32;4.07;;;15.70;99.90;;;;;;4959041;28;20046;-82
2023/10/07 05:05:30;;;;;;;12.50;3.72;;;15.70;99.90;;;;;;4961496;28;20058;-84
2023/10/07 05:07:58;;;;;;;9.95;3.85;;;15.90;99.90;;;;;;4955924;28;20031;-83
2023/10/07 05:10:29;;;;;;;13.45;4.30;;;15.90;99.90;;;;;;4963889;28;20094;-86
2023/10/07 05:12:56;;;;;;;7.13;3.05;;;15.90;99.90;;;;;;4960076;28;20298;-81
2023/10/07 05:15:25;;;;;;;12.00;3.53;;;16.00;99.90;;;;;;4964924;28;20022;-85
2023/10/07 05:17:52;;;;;;;9.68;3.72;;;16.10;99.90;;;;;;4963835;28;20653;-83
2023/10/07 05:20:32;;;;;;;13.18;3.88;;;16.00;99.90;;;;;;4959742;28;20141;-83
2023/10/07 05:23:02;;;;;;;11.68;3.60;;;16.00;99.90;;;;;;4962376;28;20051;-80
2023/10/07 05:25:29;;;;;;;10.55;3.58;;;16.10;99.90;;;;;;4963513;28;20033;-85
2023/10/07 05:27:56;;;;;;;11.63;3.60;;;16.20;99.90;;;;;;4966328;28;20069;-82
2023/10/07 05:30:22;;;;;;;11.65;3.33;;;16.20;99.90;;;;;;4962971;28;20110;-90
2023/10/07 05:32:47;;;;;;;10.38;3.72;;;16.10;99.90;;;;;;4962151;28;20181;-86
2023/10/07 05:35:18;;;;;;;12.30;3.60;;;16.20;99.90;;;;;;4963266;28;20026;-83
2023/10/07 05:37:45;;;;;;;8.73;3.05;;;16.10;99.90;;;;;;4963563;28;20054;-83
2023/10/07 05:40:13;;;;;;;11.20;3.22;;;16.10;99.90;;;;;;4959606;28;20070;-85
2023/10/07 05:42:39;;;;;;;8.63;2.83;;;16.10;99.90;;;;;;4957215;28;20030;-83
2023/10/07 05:45:07;;;;;;;9.20;3.53;;;16.10;99.90;;;;;;4963096;28;20118;-82
2023/10/07 05:47:33;;;;;;;10.10;2.53;;;16.10;99.90;;;;;;4963498;28;20093;-86
2023/10/07 05:50:00;;;;;;;14.90;2.90;;;16.10;99.90;;;;;;4967247;28;20464;-84
2023/10/07 05:52:26;;;;;;;9.48;2.75;;;16.00;99.90;;;;;;4967556;28;20069;-85
2023/10/07 05:54:58;;;;;;;7.47;2.70;;;16.00;99.90;;;;;;4970403;28;20085;-85
2023/10/07 05:57:35;;;;;;;9.90;2.83;;;16.00;99.90;;;;;;4964768;28;20387;-88
2023/10/07 06:00:01;;;;;;;5.80;2.92;;;15.90;99.90;;;;;;4967425;28;20508;-82
2023/10/07 06:02:27;;;;;;;7.13;2.78;;;15.90;99.90;;;;;;4966712;28;20109;-84
2023/10/07 06:04:53;;;;;;;6.78;2.80;;;15.90;99.90;;;;;;4967149;28;20023;-87
2023/10/07 06:07:21;;;;;;;9.25;3.53;;;15.80;99.90;;;;;;4968868;28;20468;-82
2023/10/07 06:09:47;;;;;;;5.05;2.63;;;15.80;99.90;;;;;;4962989;28;20031;-84
2023/10/07 06:12:15;;;;;;;7.22;3.00;;;15.80;99.90;;;;;;4965123;28;20084;-91
2023/10/07 06:14:42;;;;;;;8.75;3.13;;;15.70;99.90;;;;;;4966739;28;20035;-81
2023/10/07 06:17:11;;;;;;;8.70;3.28;;;15.60;99.90;;;;;;4966978;28;20031;-84
2023/10/07 06:19:43;;;;;;;15.15;3.50;;;15.60;99.90;;;;;;4966023;28;20504;-85
2023/10/07 06:22:12;;;;;;;8.68;3.17;;;15.60;99.90;;;;;;4960131;28;20038;-85
2023/10/07 06:24:42;;;;;;;7.03;3.38;;;15.60;99.90;;;;;;4954256;28;20391;-85
2023/10/07 06:27:11;;;;;;;8.13;3.58;;;15.50;99.90;;;;;;4961848;28;20038;-85
2023/10/07 06:29:42;;;;;;;12.93;3.45;;;15.50;99.90;;;;;;4961917;28;20031;-84
2023/10/07 06:32:23;;;;;;;10.60;3.25;;;15.50;99.90;;;;;;4963488;28;20054;-85
2023/10/07 06:34:51;;;;;;;6.55;3.10;;;15.50;99.90;;;;;;4963787;28;20031;-85
2023/10/07 06:37:27;;;;;;;7.57;3.45;;;15.50;99.90;;;;;;4962548;28;20050;-85
2023/10/07 06:39:53;;;;;;;6.68;3.28;;;15.40;99.90;;;;;;4963958;28;20154;-85
2023/10/07 06:42:24;;;;;;;9.02;3.45;;;15.40;99.90;;;;;;4963522;28;20117;-84
2023/10/07 06:44:54;;;;;;;7.43;3.38;;;15.40;99.90;;;;;;4962636;28;20031;-83
2023/10/07 06:47:21;;;;;;;7.57;4.05;;;15.50;99.90;;;;;;4962540;28;20475;-84
2023/10/07 06:49:48;;;;;;;9.57;3.53;;;15.50;99.90;;;;;;4964637;28;20118;-84
2023/10/07 06:52:16;;;;;;;9.20;4.15;;;15.50;99.90;;;;;;4966894;28;20038;-84
2023/10/07 06:54:43;;;;;;;5.38;3.10;;;15.60;99.90;;;;;;4963535;28;20030;-85
2023/10/07 06:57:10;;;;;;;9.73;4.15;;;15.60;99.90;;;;;;4969240;28;20026;-86
2023/10/07 06:59:45;;;;;;;10.48;3.70;;;15.70;99.90;;;;;;4965339;28;20046;-82
2023/10/07 07:02:18;;;;;;;9.35;4.13;;;15.80;99.90;;;;;;4966574;28;20054;-84
2023/10/07 07:04:46;;;;;;;11.63;4.30;;;15.80;99.90;;;;;;4958674;28;20039;-86
2023/10/07 07:07:16;;;;;;;8.68;4.85;;;15.90;99.90;;;;;;4967348;28;20047;-85
2023/10/07 07:12:16;;;;;;;11.35;5.18;;;15.90;99.90;;;;;;4963428;28;20034;-86
2023/10/07 07:14:46;;;;;;;10.45;5.13;;;15.80;99.90;;;;;;4964655;28;20026;-83
2023/10/07 07:17:35;;;;;;;15.13;6.35;;;15.90;99.90;;;;;;4958897;28;20272;-84
2023/10/07 07:22:36;;;;;;;13.65;6.90;;;15.80;99.90;;;;;;4960794;28;20034;-86
2023/10/07 07:25:17;;;;;;;16.08;6.80;;;15.80;99.90;;;;;;4962149;28;20359;-85
2023/10/07 07:27:48;;;;;;;9.93;6.88;;;15.70;99.90;;;;;;4960670;28;20031;-83
2023/10/07 07:33:13;;;;;;;15.77;7.57;;;15.80;99.90;;;;;;4954622;28;20045;-86
2023/10/07 07:35:40;;;;;;;17.77;8.82;;;15.80;99.90;;;;;;4961883;28;20499;-83
2023/10/07 07:41:08;;;;;;;21.17;8.30;;;15.80;99.90;;;;;;4962415;28;20522;-83
2023/10/07 07:43:36;;;;;;;15.00;8.68;;;15.90;99.90;;;;;;4958813;28;20034;-85
2023/10/07 07:49:07;;;;;;;20.75;9.30;;;15.90;99.90;;;;;;4959320;28;20042;-85
2023/10/07 07:51:40;;;;;;;19.73;8.68;;;15.90;99.90;;;;;;4961623;28;20118;-85
2023/10/07 07:54:06;;;;;;;20.95;9.52;;;15.90;99.90;;;;;;4961634;28;20382;-82
2023/10/07 07:56:33;;;;;;;19.85;8.35;;;16.00;99.90;;;;;;4965665;28;20475;-84
2023/10/07 07:59:00;;;;;;;18.52;8.07;;;16.00;99.90;;;;;;4963167;28;20042;-87
2023/10/07 08:01:28;;;;;;;16.55;7.85;;;16.00;99.90;;;;;;4963453;28;20046;-85
2023/10/07 08:04:09;;;;;;;16.30;8.07;;;16.00;99.90;;;;;;4963255;28;20121;-82
2023/10/07 08:06:36;;;;;;;24.05;8.75;;;16.00;99.90;;;;;;4956731;28;20028;-83
2023/10/07 08:09:03;;;;;;;17.98;7.97;;;16.00;99.90;;;;;;4959744;28;20034;-81
2023/10/07 08:11:38;;;;;;;17.35;7.57;;;16.00;99.90;;;;;;4963791;28;20034;-85
2023/10/07 08:14:09;;;;;;;23.38;8.85;;;16.00;99.90;;;;;;4964847;28;20054;-81
2023/10/07 08:16:46;;;;;;;20.80;9.18;;;16.00;99.90;;;;;;4956802;28;20022;-82
2023/10/07 08:19:13;;;;;;;18.58;7.65;;;16.00;99.90;;;;;;4960421;28;20042;-87
2023/10/07 08:21:40;;;;;;;18.20;7.70;;;16.00;99.90;;;;;;4964010;28;20081;-84
2023/10/07 08:24:06;;;;;;;17.63;7.55;;;16.10;99.90;;;;;;4962288;28;20026;-82
2023/10/07 08:26:34;;;;;;;20.23;7.53;;;16.10;99.90;;;;;;4960893;28;20035;-85
2023/10/07 08:29:00;;;;;;;17.38;8.07;;;16.10;99.90;;;;;;4961115;28;20549;-84
2023/10/07 08:31:37;;;;;;;21.23;9.13;;;16.10;99.90;;;;;;4962096;28;20066;-83
2023/10/07 08:34:15;;;;;;;17.70;7.35;;;16.10;99.90;;;;;;4960599;28;20038;-84
2023/10/07 08:36:44;;;;;;;14.82;7.68;;;16.20;99.90;;;;;;4960017;28;20042;-84
2023/10/07 08:39:10;;;;;;;16.17;7.88;;;16.20;99.90;;;;;;4955995;28;20041;-84
2023/10/07 08:41:40;;;;;;;15.80;7.53;;;16.20;99.90;;;;;;4962690;28;20051;-89
2023/10/07 08:44:14;;;;;;;17.20;8.85;;;16.20;99.90;;;;;;4962818;28;20109;-88
2023/10/07 08:46:54;;;;;;;17.83;7.87;;;16.30;99.90;;;;;;4964576;28;20030;-86
2023/10/07 08:49:27;;;;;;;18.30;9.55;;;16.30;99.90;;;;;;4964461;28;20504;-86
2023/10/07 08:52:08;;;;;;;16.95;8.30;;;16.30;99.90;;;;;;4966857;28;20042;-85
2023/10/07 08:54:37;;;;;;;16.92;8.50;;;16.40;99.90;;;;;;4962988;28;20104;-88
2023/10/07 08:57:26;;;;;;;20.42;8.48;;;16.40;99.90;;;;;;4963591;28;20484;-87
2023/10/07 08:59:52;;;;;;;18.67;7.78;;;16.40;99.90;;;;;;4968801;28;20051;-89
2023/10/07 09:02:30;;;;;;;14.80;7.65;;;16.40;99.90;;;;;;4959629;28;20081;-88
2023/10/07 09:04:59;;;;;;;21.92;7.75;;;16.50;99.90;;;;;;4961429;28;20392;-86
2023/10/07 09:07:32;;;;;;;15.18;7.30;;;16.50;99.90;;;;;;4962754;28;20053;-83
2023/10/07 09:10:10;;;;;;;14.68;7.57;;;16.50;99.90;;;;;;4963534;28;20480;-82
2023/10/07 09:12:45;;;;;;;19.60;7.85;;;16.60;99.90;;;;;;4963195;28;20472;-86
2023/10/07 09:15:25;;;;;;;15.70;6.97;;;16.60;99.90;;;;;;4959039;28;20038;-89
2023/10/07 09:18:01;;;;;;;13.90;6.80;;;16.60;99.90;;;;;;4962958;28;20365;-86
2023/10/07 09:20:31;;;;;;;16.52;7.38;;;16.70;99.90;;;;;;4966652;28;20042;-87
2023/10/07 09:23:14;;;;;;;11.88;6.28;;;16.70;99.90;;;;;;4965742;28;20034;-82
2023/10/07 09:25:50;;;;;;;14.50;6.40;;;16.80;99.90;;;;;;4962521;28;20365;-87
2023/10/07 09:28:18;;;;;;;12.93;6.57;;;16.80;99.90;;;;;;4960821;28;20054;-85
2023/10/07 09:30:45;;;;;;;13.13;6.57;;;16.80;99.90;;;;;;4966216;28;20030;-84
2023/10/07 09:33:19;;;;;;;13.48;7.03;;;16.80;99.90;;;;;;4964646;28;20476;-87
2023/10/07 09:36:22;;;;;;;14.80;6.13;;;16.80;99.90;;;;;;4965264;28;20042;-84
2023/10/07 09:38:42;;;;;;;14.98;6.20;;;16.90;99.90;;;;;;4963980;28;20383;-85
2023/10/07 09:43:37;;;;;;;20.58;6.90;;;17.00;99.90;;;;;;4963420;28;20364;-86
2023/10/07 09:46:04;;;;;;;16.08;6.13;;;17.00;99.90;;;;;;4966111;28;20027;-84
2023/10/07 09:48:33;;;;;;;20.77;5.78;;;17.10;99.90;;;;;;4965281;28;20061;-84
2023/10/07 09:51:00;;;;;;;16.67;5.95;;;17.10;99.90;;;;;;4966151;28;20117;-83
2023/10/07 09:53:57;;;;;;;18.30;6.88;;;17.10;99.90;;;;;;4960053;28;20050;-90
2023/10/07 09:56:43;;;;;;;21.00;7.50;;;17.10;99.90;;;;;;4963941;28;20034;-88
2023/10/07 09:59:25;;;;;;;;;;;17.10;99.90;;;;;;4958941;28;20030;-87
2023/10/07 10:02:16;;;;;;;12.63;7.05;;;17.10;99.90;;;;;;4961986;28;20287;-83
2023/10/07 10:05:11;;;;;;;22.60;7.80;;;17.10;99.90;;;;;;4968330;28;20502;-86
2023/10/07 10:07:40;;;;;;;18.88;7.60;;;17.10;99.90;;;;;;4965951;28;20070;-84
2023/10/07 10:10:12;;;;;;;17.40;8.07;;;17.10;99.90;;;;;;4956758;28;20027;-81
2023/10/07 10:18:05;;;;;;;14.30;7.95;;;17.20;99.90;;;;;;4965030;28;20484;-82
2023/10/07 10:20:44;;;;;;;20.13;7.45;;;17.20;99.90;;;;;;4962737;28;20097;-83
2023/10/07 10:23:20;;;;;;;18.77;8.15;;;17.20;99.90;;;;;;4960875;28;20035;-82
2023/10/07 10:25:48;;;;;;;19.80;7.30;;;17.20;99.90;;;;;;4960573;28;20113;-85
2023/10/07 10:28:31;;;;;;;16.85;7.38;;;17.30;99.90;;;;;;4970628;28;20121;-83
2023/10/07 10:30:58;;;;;;;13.15;6.95;;;17.30;99.90;;;;;;4981155;28;20082;-83
2023/10/07 10:33:32;;;;;;;18.42;6.72;;;17.30;99.90;;;;;;4968474;28;20117;-81
2023/10/07 10:36:01;;;;;;;19.63;6.32;;;17.30;99.90;;;;;;4966164;28;20069;-83
2023/10/07 10:38:41;;;;;;;13.52;7.43;;;17.30;99.90;;;;;;4972417;28;20031;-83
2023/10/07 10:41:08;;;;;;;12.60;6.80;;;17.30;99.90;;;;;;4969083;28;20031;-83
2023/10/07 10:43:34;;;;;;;12.98;7.10;;;17.20;99.90;;;;;;4969284;28;20022;-87
2023/10/07 10:46:07;;;;;;;16.42;6.32;;;17.20;99.90;;;;;;4964085;28;20027;-84
2023/10/07 10:48:38;;;;;;;11.90;5.95;;;17.20;99.90;;;;;;4961472;28;20027;-81
2023/10/07 10:51:05;;;;;;;19.13;6.90;;;17.30;99.90;;;;;;4965540;28;20027;-80
2023/10/07 10:53:41;;;;;;;12.52;6.65;;;17.20;99.90;;;;;;4964733;28;20022;-90
2023/10/07 10:56:07;;;;;;;11.63;6.90;;;17.20;99.90;;;;;;4959778;28;20368;-84
2023/10/07 10:58:36;;;;;;;12.50;6.53;;;17.30;99.90;;;;;;4964142;28;20031;-84
2023/10/07 11:01:05;;;;;;;17.13;6.55;;;17.30;99.90;;;;;;4966845;28;20052;-82
2023/10/07 11:03:31;;;;;;;22.65;6.60;;;17.30;99.90;;;;;;4964732;28;20414;-85
2023/10/07 11:05:57;;;;;;;12.77;6.07;;;17.30;99.90;;;;;;4965761;28;20037;-80
2023/10/07 11:08:24;;;;;;;10.88;6.35;;;17.30;99.90;;;;;;4966906;28;20026;-85
2023/10/07 11:10:54;;;;;;;15.02;6.35;;;17.30;99.90;;;;;;4961964;28;20035;-85
2023/10/07 11:13:20;;;;;;;14.93;5.45;;;17.40;99.90;;;;;;4965469;28;20035;-84
2023/10/07 11:16:10;;;;;;;17.30;5.70;;;17.40;99.90;;;;;;4965706;28;20118;-82
2023/10/07 11:18:38;;;;;;;17.65;6.60;;;17.40;99.90;;;;;;4963855;28;20023;-84
2023/10/07 11:21:09;;;;;;;15.88;5.93;;;17.50;99.90;;;;;;4967405;28;20039;-84
2023/10/07 11:23:55;;;;;;;12.05;5.88;;;17.50;99.90;;;;;;4977364;28;20038;-84
2023/10/07 11:26:21;;;;;;;14.50;6.18;;;17.60;99.90;;;;;;4961793;28;20190;-88
2023/10/07 11:28:51;;;;;;;15.75;5.47;;;17.70;99.90;;;;;;4965753;28;20038;-82
2023/10/07 11:31:30;;;;;;;15.38;5.43;;;17.60;99.90;;;;;;4963980;28;20076;-85
2023/10/07 11:33:57;;;;;;;11.02;5.03;;;17.70;99.90;;;;;;4964986;28;20090;-84
2023/10/07 11:36:23;;;;;;;14.00;5.18;;;17.70;99.90;;;;;;4965678;28;20057;-85
2023/10/07 11:38:49;;;;;;;10.80;5.70;;;17.80;99.90;;;;;;4965554;28;20165;-84
2023/10/07 11:41:16;;;;;;;14.35;5.97;;;17.80;99.90;;;;;;4964843;28;20396;-86
2023/10/07 11:43:48;;;;;;;11.73;5.32;;;17.90;99.90;;;;;;4964666;28;20035;-84
2023/10/07 11:46:14;;;;;;;17.63;6.07;;;17.90;99.90;;;;;;4962753;28;20479;-84
2023/10/07 11:48:41;;;;;;;8.75;4.85;;;17.90;99.90;;;;;;4966068;28;20487;-91
2023/10/07 11:51:10;;;;;;;13.77;5.07;;;17.90;99.90;;;;;;4973733;28;20385;-80
2023/10/07 11:53:36;;;;;;;11.65;4.35;;;18.00;99.90;;;;;;4963401;28;20074;-85
2023/10/07 11:56:11;;;;;;;16.65;5.10;;;18.00;99.90;;;;;;4959962;28;20018;-86
2023/10/07 11:58:41;;;;;;;16.40;5.30;;;18.00;99.90;;;;;;4957228;28;20023;-84
2023/10/07 12:01:07;;;;;;;18.02;5.75;;;18.10;99.90;;;;;;4958098;28;20057;-88
2023/10/07 12:03:34;;;;;;;20.80;5.30;;;18.20;99.90;;;;;;4960517;28;20468;-85
2023/10/07 12:06:00;;;;;;;14.32;4.50;;;18.40;99.90;;;;;;4959891;28;20039;-89
2023/10/07 12:08:26;;;;;;;19.80;5.65;;;18.50;99.90;;;;;;4961401;28;20041;-85
2023/10/07 12:10:52;;;;;;;11.43;4.10;;;18.70;99.90;;;;;;4963510;28;20031;-85
2023/10/07 12:13:19;;;;;;;13.60;4.93;;;18.70;99.90;;;;;;4957421;28;20023;-89
2023/10/07 12:15:45;;;;;;;11.38;4.07;;;18.80;99.90;;;;;;4961402;28;20027;-82
2023/10/07 12:18:13;;;;;;;12.88;4.63;;;18.90;99.90;;;;;;4962995;28;20456;-89
2023/10/07 12:20:40;;;;;;;10.27;4.85;;;18.90;99.90;;;;;;4967192;28;20687;-83
2023/10/07 12:23:07;;;;;;;10.25;4.70;;;19.00;99.90;;;;;;4964911;28;20027;-85
2023/10/07 12:25:35;;;;;;;9.57;4.47;;;19.10;99.90;;;;;;4962629;28;20031;-84
2023/10/07 12:28:05;;;;;;;11.55;5.15;;;19.10;99.90;;;;;;4966053;28;20213;-87
2023/10/07 12:30:31;;;;;;;12.82;5.35;;;19.00;99.90;;;;;;4960459;28;20535;-82
2023/10/07 12:32:57;;;;;;;13.48;4.07;;;19.00;99.90;;;;;;4965494;28;20133;-84
2023/10/07 12:35:24;;;;;;;15.93;5.55;;;19.20;99.90;;;;;;4962625;28;20472;-81
2023/10/07 12:37:52;;;;;;;13.82;4.68;;;19.30;99.90;;;;;;4965416;28;20039;-88
2023/10/07 12:40:19;;;;;;;15.30;5.05;;;19.50;99.90;;;;;;4963631;28;20046;-85
2023/10/07 12:42:47;;;;;;;10.73;4.03;;;19.60;99.90;;;;;;4963573;28;20392;-91
2023/10/07 12:45:13;;;;;;;15.40;4.93;;;19.70;99.90;;;;;;4958403;28;20049;-87
2023/10/07 12:47:42;;;;;;;12.32;4.50;;;19.80;99.90;;;;;;4963980;28;20513;-84
2023/10/07 12:52:57;;;;;;;9.40;4.30;;;19.80;99.90;;;;;;4954327;28;20503;-81
2023/10/07 12:55:34;;;;;;;11.05;4.20;;;19.80;99.90;;;;;;4965446;28;20390;-85
2023/10/07 12:58:15;;;;;;;13.85;4.28;;;19.80;99.90;;;;;;4960944;28;20039;-92
2023/10/07 13:00:42;;;;;;;13.55;4.35;;;19.70;99.90;;;;;;4961885;28;20133;-84
2023/10/07 13:03:09;;;;;;;6.43;3.90;;;19.60;99.90;;;;;;4966388;28;20054;-87
2023/10/07 13:05:38;;;;;;;8.43;3.75;;;19.60;99.90;;;;;;4964685;28;20047;-87
2023/10/07 13:08:12;;;;;;;18.70;4.75;;;19.50;99.90;;;;;;4963158;28;20026;-83
2023/10/07 13:10:38;;;;;;;10.30;3.80;;;19.50;99.90;;;;;;4966437;28;20039;-83
2023/10/07 13:13:04;;;;;;;14.50;4.53;;;19.60;99.90;;;;;;4965815;28;20062;-88
2023/10/07 13:15:30;;;;;;;8.52;3.58;;;19.60;99.90;;;;;;4963741;28;20066;-89
2023/10/07 13:17:58;;;;;;;9.20;3.58;;;19.70;99.90;;;;;;4962044;28;20025;-84
2023/10/07 13:20:27;;;;;;;12.38;3.78;;;19.80;99.90;;;;;;4962477;28;20046;-89
2023/10/07 13:22:57;;;;;;;11.50;3.85;;;19.80;99.90;;;;;;4966638;28;20027;-86
2023/10/07 13:25:26;;;;;;;11.93;4.00;;;19.80;99.90;;;;;;4966081;28;20030;-88
2023/10/07 13:27:55;;;;;;;15.25;4.22;;;19.60;99.90;;;;;;4961269;28;20030;-88
2023/10/07 13:30:24;;;;;;;10.13;3.75;;;19.60;99.90;;;;;;4964169;28;20026;-81
2023/10/07 13:32:52;;;;;;;9.40;3.75;;;19.60;99.90;;;;;;4963303;28;20113;-84
2023/10/07 13:35:19;;;;;;;12.30;4.30;;;19.50;99.90;;;;;;4976988;28;20520;-85
2023/10/07 13:37:58;;;;;;;8.18;3.58;;;19.50;99.90;;;;;;4966402;28;20031;-83
2023/10/07 13:40:24;;;;;;;15.40;5.03;;;19.60;99.90;;;;;;4960490;28;20125;-89
2023/10/07 13:42:53;;;;;;;10.02;4.05;;;19.60;99.90;;;;;;4966864;28;20631;-82
2023/10/07 13:45:24;;;;;;;11.10;4.20;;;19.70;99.90;;;;;;4966514;28;20026;-88
2023/10/07 13:47:51;;;;;;;10.60;4.35;;;19.70;99.90;;;;;;4963502;28;20559;-83
2023/10/07 13:50:24;;;;;;;13.60;4.65;;;19.80;99.90;;;;;;4962139;28;20401;-91